createdAt,value
2023-03-11T00:02:20.199Z,98078.47
2023-03-11T00:07:22.480Z,98120.00
2023-03-11T00:12:24.699Z,98135.06
2023-03-11T00:17:26.800Z,98128.50
2023-03-11T00:22:28.904Z,98098.78
2023-03-11T00:27:31.785Z,98024.97
2023-03-11T00:32:35.699Z,98145.84
2023-03-11T00:37:37.976Z,98053.72
2023-03-11T00:42:40.254Z,98021.16
2023-03-11T00:47:42.844Z,98061.06
2023-03-11T00:52:47.868Z,98097.84
2023-03-11T00:57:57.599Z,98104.28
2023-03-11T01:03:02.552Z,98086.41
2023-03-11T01:08:06.018Z,98146.28
2023-03-11T01:13:08.284Z,98160.69
2023-03-11T01:18:10.538Z,98063.97
2023-03-11T01:23:14.611Z,98005.59
2023-03-11T01:28:16.908Z,98108.38
2023-03-11T01:33:20.342Z,98094.78
2023-03-11T01:38:22.706Z,98050.25
2023-03-11T01:43:47.662Z,98095.44
2023-03-11T01:48:59.022Z,98039.00
2023-03-11T01:54:10.813Z,98071.16
2023-03-11T01:59:19.438Z,98051.19
2023-03-11T02:04:22.153Z,98061.13
2023-03-11T02:09:27.129Z,97965.31
2023-03-11T02:14:30.813Z,98021.06
2023-03-11T02:19:54.881Z,98068.78
2023-03-11T02:25:05.248Z,98123.44
2023-03-11T02:30:37.481Z,98103.72
2023-03-11T02:35:40.252Z,98041.00
2023-03-11T02:40:57.028Z,98072.22
2023-03-11T02:46:01.984Z,97958.56
2023-03-11T02:51:05.896Z,98031.56
2023-03-11T02:56:08.471Z,98019.78
2023-03-11T03:01:11.258Z,98027.97
2023-03-11T03:06:15.832Z,98031.91
2023-03-11T03:11:18.166Z,97987.47
2023-03-11T03:16:21.709Z,98021.56
2023-03-11T03:21:23.881Z,98087.03
2023-03-11T03:26:26.764Z,98080.31
2023-03-11T03:31:28.967Z,98053.50
2023-03-11T03:36:32.496Z,98076.34
2023-03-11T03:41:38.482Z,98149.69
2023-03-11T03:46:42.083Z,98028.94
2023-03-11T03:51:45.375Z,98122.25
2023-03-11T03:56:56.164Z,97989.13
2023-03-11T04:01:59.256Z,97987.25
2023-03-11T04:07:05.817Z,98012.94
2023-03-11T04:12:14.856Z,98051.44
2023-03-11T04:17:17.925Z,97992.97
2023-03-11T04:22:20.268Z,98127.19
2023-03-11T04:27:22.777Z,97927.13
2023-03-11T04:32:25.438Z,98022.66
2023-03-11T04:37:30.991Z,98008.75
2023-03-11T04:42:33.447Z,98008.41
2023-03-11T04:47:36.466Z,98093.41
2023-03-11T04:52:40.125Z,98057.31
2023-03-11T04:57:43.569Z,97978.53
2023-03-11T05:02:48.043Z,98099.72
2023-03-11T05:07:50.463Z,98058.25
2023-03-11T05:12:52.995Z,98090.91
2023-03-11T05:17:57.301Z,98052.84
2023-03-11T05:23:00.038Z,97922.56
2023-03-11T05:28:04.995Z,97957.72
2023-03-11T05:33:09.740Z,97882.63
2023-03-11T05:38:12.896Z,97939.03
2023-03-11T05:43:15.223Z,97948.56
2023-03-11T05:48:21.929Z,97993.16
2023-03-11T05:53:25.389Z,97962.50
2023-03-11T05:58:30.147Z,98037.38
2023-03-11T06:03:32.588Z,97997.72
2023-03-11T06:08:35.645Z,97989.75
2023-03-11T06:13:41.680Z,97953.09
2023-03-11T06:18:46.126Z,97987.47
2023-03-11T06:49:59.882Z,97992.66
2023-03-11T06:55:04.128Z,98151.06
2023-03-11T07:00:12.297Z,98041.25
2023-03-11T07:05:17.068Z,98074.69
2023-03-11T07:10:19.497Z,98039.66
2023-03-11T07:15:21.841Z,98077.69
2023-03-11T07:20:24.155Z,98150.88
2023-03-11T07:25:26.420Z,98131.91
2023-03-11T07:30:28.684Z,98009.38
2023-03-11T07:35:31.113Z,98199.72
2023-03-11T07:40:33.286Z,98131.75
2023-03-11T07:45:35.547Z,98137.38
2023-03-11T07:50:37.823Z,98151.03
2023-03-11T07:55:40.019Z,98171.84
2023-03-11T08:00:42.278Z,98183.59
2023-03-11T08:05:44.593Z,98191.16
2023-03-11T08:10:46.957Z,98165.81
2023-03-11T08:15:49.127Z,98118.22
2023-03-11T08:20:51.339Z,98134.38
2023-03-11T08:25:53.557Z,98225.44
2023-03-11T08:30:55.825Z,98162.31
2023-03-11T08:35:58.185Z,98235.97
2023-03-11T08:41:01.094Z,98326.56
2023-03-11T08:46:08.800Z,98206.28
2023-03-11T08:51:13.500Z,98231.03
2023-03-11T08:56:15.637Z,98250.53
2023-03-11T09:01:18.303Z,98216.75
2023-03-11T09:06:21.320Z,98296.09
2023-03-11T09:11:24.254Z,98320.09
2023-03-11T09:16:26.543Z,98339.72
2023-03-11T09:21:28.866Z,98288.09
2023-03-11T09:26:32.159Z,98292.91
2023-03-11T09:31:34.511Z,98304.59
2023-03-11T09:36:36.736Z,98425.75
2023-03-11T09:41:59.411Z,98435.69
2023-03-11T09:47:20.076Z,98300.50
2023-03-11T09:52:37.974Z,98397.03
2023-03-11T09:57:40.239Z,98396.91
2023-03-11T10:02:43.238Z,98362.34
2023-03-11T10:08:01.067Z,98390.34
2023-03-11T10:13:50.196Z,98401.00
2023-03-11T10:19:30.879Z,98382.81
2023-03-11T10:25:10.493Z,98463.59
2023-03-11T10:30:27.456Z,98460.63
2023-03-11T10:35:46.073Z,98521.44
2023-03-11T10:40:52.510Z,98525.56
2023-03-11T10:45:55.411Z,98395.47
2023-03-11T10:51:18.051Z,98493.63
2023-03-11T10:56:37.253Z,98404.75
2023-03-11T11:01:40.862Z,98415.88
2023-03-11T11:06:43.441Z,98514.09
2023-03-11T11:12:13.645Z,98423.94
2023-03-11T11:17:37.042Z,98437.16
2023-03-11T11:22:50.621Z,98499.59
2023-03-11T11:28:18.307Z,98365.47
2023-03-11T11:33:55.424Z,98453.06
2023-03-11T11:39:02.740Z,98523.28
2023-03-11T11:44:07.400Z,98571.75
2023-03-11T11:49:30.414Z,98423.25
2023-03-11T11:54:40.590Z,98396.53
2023-03-11T11:59:44.023Z,98507.84
2023-03-11T12:05:16.670Z,98511.09
2023-03-11T12:10:56.460Z,98506.13
2023-03-11T12:16:20.401Z,98446.72
2023-03-11T12:21:51.373Z,98497.66
2023-03-11T12:27:00.526Z,98465.75
2023-03-11T12:32:03.900Z,98445.38
2023-03-11T12:37:17.111Z,98479.59
2023-03-11T12:42:27.005Z,98472.72
2023-03-11T12:47:29.129Z,98440.00
2023-03-11T12:52:31.738Z,98469.03
2023-03-11T12:57:44.348Z,98459.00
2023-03-11T13:03:10.917Z,98355.69
2023-03-11T13:08:56.882Z,98464.06
2023-03-11T13:14:36.390Z,98482.78
2023-03-11T13:19:50.233Z,98437.97
2023-03-11T13:24:52.559Z,98437.25
2023-03-11T13:30:06.700Z,98415.38
2023-03-11T13:35:44.672Z,98430.72
2023-03-11T13:40:47.808Z,98409.59
2023-03-11T13:46:02.328Z,98425.72
2023-03-11T13:51:35.410Z,98446.50
2023-03-11T13:56:54.112Z,98409.78
2023-03-11T14:02:17.644Z,98454.03
2023-03-11T14:07:34.313Z,98410.28
2023-03-11T14:12:36.496Z,98445.75
2023-03-11T14:17:38.763Z,98341.09
2023-03-11T14:22:46.042Z,98395.84
2023-03-11T14:27:56.288Z,98455.84
2023-03-11T14:33:02.802Z,98369.03
2023-03-11T14:38:22.130Z,98429.59
2023-03-11T14:43:24.939Z,98464.63
2023-03-11T14:48:46.052Z,98428.81
2023-03-11T14:54:04.164Z,98406.16
2023-03-11T14:59:16.401Z,98422.03
2023-03-11T15:04:32.906Z,98314.59
2023-03-11T15:09:40.993Z,98442.63
2023-03-11T15:14:51.691Z,98312.34
2023-03-11T15:19:54.504Z,98406.53
2023-03-11T15:24:59.962Z,98339.38
2023-03-11T15:30:15.356Z,98446.25
2023-03-11T15:35:28.208Z,98429.16
2023-03-11T15:40:44.322Z,98383.22
2023-03-11T15:45:49.100Z,98277.56
2023-03-11T15:51:00.086Z,98379.00
2023-03-11T15:56:12.398Z,98442.97
2023-03-11T16:01:14.514Z,98313.34
2023-03-11T16:06:16.607Z,98314.69
2023-03-11T16:11:18.906Z,98319.91
2023-03-11T16:16:21.096Z,98366.09
2023-03-11T16:21:31.284Z,98359.53
2023-03-11T16:26:35.632Z,98336.78
2023-03-11T16:31:37.751Z,98332.06
2023-03-11T16:36:39.887Z,98362.25
2023-03-11T16:41:44.598Z,98401.31
2023-03-11T16:46:46.902Z,98328.88
2023-03-11T16:51:49.030Z,98352.34
2023-03-11T16:56:51.279Z,98385.06
2023-03-11T17:01:53.395Z,98361.47
2023-03-11T17:06:56.088Z,98407.28
2023-03-11T17:11:58.465Z,98442.94
2023-03-11T17:17:00.709Z,98424.00
2023-03-11T17:22:03.085Z,98390.00
2023-03-11T17:27:05.894Z,98407.16
2023-03-11T17:32:08.624Z,98386.63
2023-03-11T17:37:10.864Z,98380.41
2023-03-11T17:42:13.004Z,98363.41
2023-03-11T17:47:15.240Z,98357.25
2023-03-11T17:52:17.559Z,98369.28
2023-03-11T17:57:19.823Z,98359.31
2023-03-11T18:02:22.331Z,98367.06
2023-03-11T18:07:25.935Z,98365.69
2023-03-11T18:12:28.183Z,98376.88
2023-03-11T18:17:30.915Z,98376.19
2023-03-11T18:22:35.432Z,98365.00
2023-03-11T18:27:38.864Z,98409.09
2023-03-11T18:32:41.411Z,98419.38
2023-03-11T18:37:44.103Z,98423.34
2023-03-11T18:42:46.474Z,98387.75
2023-03-11T18:47:49.034Z,98408.59
2023-03-11T18:52:52.841Z,98422.63
2023-03-11T18:57:55.143Z,98373.28
2023-03-11T19:02:57.255Z,98400.00
2023-03-11T19:07:59.452Z,98396.75
2023-03-11T19:13:01.536Z,98416.50
2023-03-11T19:18:07.000Z,98451.50
2023-03-11T19:23:11.219Z,98434.47
2023-03-11T19:28:13.505Z,98455.75
2023-03-11T19:33:15.810Z,98469.13
2023-03-11T19:38:18.134Z,98451.41
2023-03-11T19:43:21.560Z,98409.34
2023-03-11T19:48:24.232Z,98473.50
2023-03-11T19:53:27.636Z,98428.69
2023-03-11T19:58:30.956Z,98392.44
2023-03-11T20:03:33.361Z,98477.69
2023-03-11T20:08:37.337Z,98439.84
2023-03-11T20:13:42.639Z,98449.94
2023-03-11T20:18:45.916Z,98417.75
2023-03-11T20:23:49.180Z,98413.63
2023-03-11T20:28:56.356Z,98426.81
2023-03-11T20:33:58.922Z,98414.06
2023-03-11T20:39:01.387Z,98393.00
2023-03-11T20:44:05.705Z,98415.25
2023-03-11T20:49:07.898Z,98360.38
2023-03-11T20:54:12.251Z,98407.13
2023-03-11T20:59:14.906Z,98445.28
2023-03-11T21:04:17.181Z,98387.06
2023-03-11T21:09:19.765Z,98414.22
2023-03-11T21:14:22.195Z,98379.59
2023-03-11T21:19:24.577Z,98494.66
2023-03-11T21:24:26.990Z,98393.59
2023-03-11T21:29:30.740Z,98419.72
2023-03-11T21:34:33.108Z,98484.06
2023-03-11T21:39:35.303Z,98382.94
2023-03-11T21:44:37.509Z,98452.16
2023-03-11T21:49:39.796Z,98419.66
2023-03-11T21:54:42.178Z,98428.81
2023-03-11T21:59:44.521Z,98394.56
2023-03-11T22:04:47.057Z,98393.41
2023-03-11T22:09:49.274Z,98464.63
2023-03-11T22:14:51.771Z,98468.13
2023-03-11T22:19:53.995Z,98514.47
2023-03-11T22:24:56.300Z,98438.84
2023-03-11T22:30:01.621Z,98502.53
2023-03-11T22:35:03.936Z,98484.03
2023-03-11T22:40:07.748Z,98541.59
2023-03-11T22:45:10.507Z,98551.19
2023-03-11T22:50:12.613Z,98533.06
2023-03-11T22:55:14.819Z,98543.50
2023-03-11T23:00:22.192Z,98559.13
2023-03-11T23:05:24.508Z,98580.00
2023-03-11T23:10:27.213Z,98509.94
2023-03-11T23:15:30.128Z,98564.84
2023-03-11T23:20:36.243Z,98585.00
2023-03-11T23:25:40.410Z,98513.03
2023-03-11T23:30:42.564Z,98565.38
2023-03-11T23:35:44.714Z,98537.78
2023-03-11T23:40:47.036Z,98526.78
2023-03-11T23:45:49.393Z,98520.59
2023-03-11T23:50:51.799Z,98500.38
2023-03-11T23:55:55.112Z,98525.72
